sensor_id;sensor_type;location;lat;lon;timestamp;P1;durP1;ratioP1;P2;durP2;ratioP2
17420;SDS011;8828;48.800;9.540;2023-07-02T00:00:29;3.37;;;1.83;;
17420;SDS011;8828;48.800;9.540;2023-07-02T00:02:58;3.20;;;2.00;;
17420;SDS011;8828;48.800;9.540;2023-07-02T00:05:28;3.10;;;1.73;;
17420;SDS011;8828;48.800;9.540;2023-07-02T00:07:56;4.57;;;2.00;;
17420;SDS011;8828;48.800;9.540;2023-07-02T00:10:25;4.23;;;1.97;;
17420;SDS011;8828;48.800;9.540;2023-07-02T00:12:53;2.43;;;1.70;;
17420;SDS011;8828;48.800;9.540;2023-07-02T00:15:21;3.87;;;1.97;;
17420;SDS011;8828;48.800;9.540;2023-07-02T00:17:49;2.53;;;1.90;;
17420;SDS011;8828;48.800;9.540;2023-07-02T00:20:17;3.10;;;1.90;;
17420;SDS011;8828;48.800;9.540;2023-07-02T00:22:46;2.83;;;1.93;;
17420;SDS011;8828;48.800;9.540;2023-07-02T00:25:14;2.23;;;1.73;;
17420;SDS011;8828;48.800;9.540;2023-07-02T00:27:43;2.90;;;2.00;;
17420;SDS011;8828;48.800;9.540;2023-07-02T00:30:12;2.60;;;1.67;;
17420;SDS011;8828;48.800;9.540;2023-07-02T00:32:40;2.63;;;1.80;;
17420;SDS011;8828;48.800;9.540;2023-07-02T00:35:08;4.27;;;2.10;;
17420;SDS011;8828;48.800;9.540;2023-07-02T00:37:36;5.57;;;2.13;;
17420;SDS011;8828;48.800;9.540;2023-07-02T00:40:05;2.87;;;1.83;;
17420;SDS011;8828;48.800;9.540;2023-07-02T00:42:33;2.53;;;2.00;;
17420;SDS011;8828;48.800;9.540;2023-07-02T00:45:03;3.27;;;2.10;;
17420;SDS011;8828;48.800;9.540;2023-07-02T00:47:33;4.87;;;2.23;;
17420;SDS011;8828;48.800;9.540;2023-07-02T00:50:02;5.43;;;2.20;;
17420;SDS011;8828;48.800;9.540;2023-07-02T00:52:31;2.60;;;1.93;;
17420;SDS011;8828;48.800;9.540;2023-07-02T00:54:59;3.03;;;1.80;;
17420;SDS011;8828;48.800;9.540;2023-07-02T00:57:27;2.43;;;1.97;;
17420;SDS011;8828;48.800;9.540;2023-07-02T00:59:56;5.27;;;2.00;;
17420;SDS011;8828;48.800;9.540;2023-07-02T01:02:28;3.20;;;2.10;;
17420;SDS011;8828;48.800;9.540;2023-07-02T01:04:57;4.87;;;2.57;;
17420;SDS011;8828;48.800;9.540;2023-07-02T01:07:27;3.37;;;2.10;;
17420;SDS011;8828;48.800;9.540;2023-07-02T01:09:56;4.43;;;1.90;;
17420;SDS011;8828;48.800;9.540;2023-07-02T01:12:24;3.33;;;2.13;;
17420;SDS011;8828;48.800;9.540;2023-07-02T01:14:53;2.40;;;1.83;;
17420;SDS011;8828;48.800;9.540;2023-07-02T01:17:26;3.77;;;2.33;;
17420;SDS011;8828;48.800;9.540;2023-07-02T01:20:05;2.70;;;1.70;;
17420;SDS011;8828;48.800;9.540;2023-07-02T01:22:35;2.90;;;1.87;;
17420;SDS011;8828;48.800;9.540;2023-07-02T01:25:03;4.77;;;2.27;;
17420;SDS011;8828;48.800;9.540;2023-07-02T01:27:32;3.93;;;1.93;;
17420;SDS011;8828;48.800;9.540;2023-07-02T01:30:01;2.47;;;1.90;;
17420;SDS011;8828;48.800;9.540;2023-07-02T01:32:30;2.80;;;2.03;;
17420;SDS011;8828;48.800;9.540;2023-07-02T01:34:58;2.30;;;1.60;;
17420;SDS011;8828;48.800;9.540;2023-07-02T01:37:28;5.13;;;1.83;;
17420;SDS011;8828;48.800;9.540;2023-07-02T01:40:03;3.43;;;2.03;;
17420;SDS011;8828;48.800;9.540;2023-07-02T01:42:33;2.47;;;1.50;;
17420;SDS011;8828;48.800;9.540;2023-07-02T01:45:01;2.30;;;1.80;;
17420;SDS011;8828;48.800;9.540;2023-07-02T01:47:29;3.00;;;1.70;;
17420;SDS011;8828;48.800;9.540;2023-07-02T01:49:57;4.00;;;1.80;;
17420;SDS011;8828;48.800;9.540;2023-07-02T01:52:25;4.43;;;1.70;;
17420;SDS011;8828;48.800;9.540;2023-07-02T01:54:54;2.83;;;1.83;;
17420;SDS011;8828;48.800;9.540;2023-07-02T01:57:22;3.23;;;1.90;;
17420;SDS011;8828;48.800;9.540;2023-07-02T01:59:50;2.13;;;1.60;;
17420;SDS011;8828;48.800;9.540;2023-07-02T02:02:18;3.20;;;1.73;;
17420;SDS011;8828;48.800;9.540;2023-07-02T02:04:46;2.90;;;1.60;;
17420;SDS011;8828;48.800;9.540;2023-07-02T02:07:14;2.33;;;1.47;;
17420;SDS011;8828;48.800;9.540;2023-07-02T02:09:42;1.90;;;1.57;;
17420;SDS011;8828;48.800;9.540;2023-07-02T02:12:11;5.10;;;1.70;;
17420;SDS011;8828;48.800;9.540;2023-07-02T02:14:40;4.17;;;1.83;;
17420;SDS011;8828;48.800;9.540;2023-07-02T02:17:08;4.10;;;1.90;;
17420;SDS011;8828;48.800;9.540;2023-07-02T02:19:36;2.73;;;1.70;;
17420;SDS011;8828;48.800;9.540;2023-07-02T02:22:04;2.30;;;1.47;;
17420;SDS011;8828;48.800;9.540;2023-07-02T02:24:32;3.47;;;1.50;;
17420;SDS011;8828;48.800;9.540;2023-07-02T02:27:00;2.70;;;1.53;;
17420;SDS011;8828;48.800;9.540;2023-07-02T02:29:29;3.00;;;1.90;;
17420;SDS011;8828;48.800;9.540;2023-07-02T02:31:57;2.60;;;1.83;;
17420;SDS011;8828;48.800;9.540;2023-07-02T02:34:25;2.77;;;1.70;;
17420;SDS011;8828;48.800;9.540;2023-07-02T02:36:55;3.07;;;1.87;;
17420;SDS011;8828;48.800;9.540;2023-07-02T02:39:23;2.97;;;1.70;;
17420;SDS011;8828;48.800;9.540;2023-07-02T02:41:51;1.77;;;1.57;;
17420;SDS011;8828;48.800;9.540;2023-07-02T02:44:18;3.50;;;1.67;;
17420;SDS011;8828;48.800;9.540;2023-07-02T02:46:48;2.40;;;1.60;;
17420;SDS011;8828;48.800;9.540;2023-07-02T02:49:16;2.13;;;1.47;;
17420;SDS011;8828;48.800;9.540;2023-07-02T02:51:44;4.20;;;1.53;;
17420;SDS011;8828;48.800;9.540;2023-07-02T02:54:12;3.97;;;1.87;;
17420;SDS011;8828;48.800;9.540;2023-07-02T02:56:40;4.53;;;1.93;;
17420;SDS011;8828;48.800;9.540;2023-07-02T02:59:09;3.07;;;1.70;;
17420;SDS011;8828;48.800;9.540;2023-07-02T03:01:37;3.50;;;1.60;;
17420;SDS011;8828;48.800;9.540;2023-07-02T03:04:07;2.80;;;1.77;;
17420;SDS011;8828;48.800;9.540;2023-07-02T03:06:35;4.93;;;1.70;;
17420;SDS011;8828;48.800;9.540;2023-07-02T03:09:03;2.20;;;1.60;;
17420;SDS011;8828;48.800;9.540;2023-07-02T03:11:31;2.77;;;1.40;;
17420;SDS011;8828;48.800;9.540;2023-07-02T03:13:59;3.37;;;1.77;;
17420;SDS011;8828;48.800;9.540;2023-07-02T03:16:27;1.73;;;1.43;;
17420;SDS011;8828;48.800;9.540;2023-07-02T03:18:55;3.43;;;1.50;;
17420;SDS011;8828;48.800;9.540;2023-07-02T03:21:24;3.23;;;1.57;;
17420;SDS011;8828;48.800;9.540;2023-07-02T03:23:52;3.70;;;1.70;;
17420;SDS011;8828;48.800;9.540;2023-07-02T03:26:20;2.27;;;1.57;;
17420;SDS011;8828;48.800;9.540;2023-07-02T03:28:50;2.70;;;1.70;;
17420;SDS011;8828;48.800;9.540;2023-07-02T03:31:18;4.77;;;1.60;;
17420;SDS011;8828;48.800;9.540;2023-07-02T03:33:46;2.57;;;1.60;;
17420;SDS011;8828;48.800;9.540;2023-07-02T03:36:14;2.53;;;1.70;;
17420;SDS011;8828;48.800;9.540;2023-07-02T03:38:43;3.73;;;1.60;;
17420;SDS011;8828;48.800;9.540;2023-07-02T03:41:11;3.77;;;1.60;;
17420;SDS011;8828;48.800;9.540;2023-07-02T03:43:39;2.30;;;1.60;;
17420;SDS011;8828;48.800;9.540;2023-07-02T03:46:07;3.87;;;1.67;;
17420;SDS011;8828;48.800;9.540;2023-07-02T03:48:35;3.90;;;1.60;;
17420;SDS011;8828;48.800;9.540;2023-07-02T03:51:03;2.30;;;1.70;;
17420;SDS011;8828;48.800;9.540;2023-07-02T03:53:31;3.00;;;1.93;;
17420;SDS011;8828;48.800;9.540;2023-07-02T03:56:00;2.57;;;1.70;;
17420;SDS011;8828;48.800;9.540;2023-07-02T03:58:28;3.50;;;2.07;;
17420;SDS011;8828;48.800;9.540;2023-07-02T04:00:56;3.07;;;1.90;;
17420;SDS011;8828;48.800;9.540;2023-07-02T04:03:24;4.53;;;1.93;;
17420;SDS011;8828;48.800;9.540;2023-07-02T04:05:52;4.20;;;2.10;;
17420;SDS011;8828;48.800;9.540;2023-07-02T04:08:20;5.03;;;2.07;;
17420;SDS011;8828;48.800;9.540;2023-07-02T04:10:48;3.27;;;2.00;;
17420;SDS011;8828;48.800;9.540;2023-07-02T04:13:18;5.60;;;2.50;;
17420;SDS011;8828;48.800;9.540;2023-07-02T04:15:45;5.73;;;2.70;;
17420;SDS011;8828;48.800;9.540;2023-07-02T04:18:14;3.53;;;2.53;;
17420;SDS011;8828;48.800;9.540;2023-07-02T04:20:42;7.90;;;2.80;;
17420;SDS011;8828;48.800;9.540;2023-07-02T04:23:10;5.97;;;2.70;;
17420;SDS011;8828;48.800;9.540;2023-07-02T04:25:38;5.23;;;2.97;;
17420;SDS011;8828;48.800;9.540;2023-07-02T04:28:27;6.20;;;3.20;;
17420;SDS011;8828;48.800;9.540;2023-07-02T04:30:55;5.43;;;2.90;;
17420;SDS011;8828;48.800;9.540;2023-07-02T04:33:23;5.77;;;2.80;;
17420;SDS011;8828;48.800;9.540;2023-07-02T04:35:51;8.60;;;3.27;;
17420;SDS011;8828;48.800;9.540;2023-07-02T04:38:19;5.00;;;2.93;;
17420;SDS011;8828;48.800;9.540;2023-07-02T04:40:47;4.10;;;2.67;;
17420;SDS011;8828;48.800;9.540;2023-07-02T04:43:18;4.43;;;2.73;;
17420;SDS011;8828;48.800;9.540;2023-07-02T04:45:47;6.57;;;3.13;;
17420;SDS011;8828;48.800;9.540;2023-07-02T04:48:15;4.37;;;2.80;;
17420;SDS011;8828;48.800;9.540;2023-07-02T04:50:43;6.60;;;2.83;;
17420;SDS011;8828;48.800;9.540;2023-07-02T04:53:11;5.73;;;3.20;;
17420;SDS011;8828;48.800;9.540;2023-07-02T04:55:39;6.03;;;3.20;;
17420;SDS011;8828;48.800;9.540;2023-07-02T04:58:07;6.83;;;3.03;;
17420;SDS011;8828;48.800;9.540;2023-07-02T05:00:35;5.43;;;3.10;;
17420;SDS011;8828;48.800;9.540;2023-07-02T05:03:04;7.63;;;3.00;;
17420;SDS011;8828;48.800;9.540;2023-07-02T05:05:32;7.33;;;3.10;;
17420;SDS011;8828;48.800;9.540;2023-07-02T05:08:00;4.93;;;3.13;;
17420;SDS011;8828;48.800;9.540;2023-07-02T05:10:31;8.63;;;3.63;;
17420;SDS011;8828;48.800;9.540;2023-07-02T05:12:59;6.33;;;2.83;;
17420;SDS011;8828;48.800;9.540;2023-07-02T05:15:27;6.97;;;3.00;;
17420;SDS011;8828;48.800;9.540;2023-07-02T05:17:54;6.47;;;3.20;;
17420;SDS011;8828;48.800;9.540;2023-07-02T05:20:24;4.40;;;2.67;;
17420;SDS011;8828;48.800;9.540;2023-07-02T05:22:52;9.13;;;3.00;;
17420;SDS011;8828;48.800;9.540;2023-07-02T05:25:20;6.80;;;3.30;;
17420;SDS011;8828;48.800;9.540;2023-07-02T05:27:48;5.70;;;3.13;;
17420;SDS011;8828;48.800;9.540;2023-07-02T05:30:16;9.13;;;3.47;;
17420;SDS011;8828;48.800;9.540;2023-07-02T05:32:44;6.93;;;3.10;;
17420;SDS011;8828;48.800;9.540;2023-07-02T05:35:12;6.17;;;3.50;;
17420;SDS011;8828;48.800;9.540;2023-07-02T05:37:42;5.67;;;2.97;;
17420;SDS011;8828;48.800;9.540;2023-07-02T05:40:11;6.40;;;2.63;;
17420;SDS011;8828;48.800;9.540;2023-07-02T05:42:42;6.27;;;2.83;;
17420;SDS011;8828;48.800;9.540;2023-07-02T05:45:10;7.33;;;3.00;;
17420;SDS011;8828;48.800;9.540;2023-07-02T05:47:38;5.40;;;3.10;;
17420;SDS011;8828;48.800;9.540;2023-07-02T05:50:07;5.60;;;2.97;;
17420;SDS011;8828;48.800;9.540;2023-07-02T05:52:37;5.57;;;2.67;;
17420;SDS011;8828;48.800;9.540;2023-07-02T05:55:07;5.67;;;2.60;;
17420;SDS011;8828;48.800;9.540;2023-07-02T05:57:36;5.90;;;2.93;;
17420;SDS011;8828;48.800;9.540;2023-07-02T06:00:05;5.33;;;2.70;;
17420;SDS011;8828;48.800;9.540;2023-07-02T06:02:34;4.97;;;2.57;;
17420;SDS011;8828;48.800;9.540;2023-07-02T06:05:02;7.93;;;2.80;;
17420;SDS011;8828;48.800;9.540;2023-07-02T06:07:30;5.17;;;2.83;;
17420;SDS011;8828;48.800;9.540;2023-07-02T06:09:58;4.33;;;2.23;;
17420;SDS011;8828;48.800;9.540;2023-07-02T06:12:28;4.17;;;2.87;;
17420;SDS011;8828;48.800;9.540;2023-07-02T06:14:56;5.17;;;2.27;;
17420;SDS011;8828;48.800;9.540;2023-07-02T06:17:24;3.93;;;2.33;;
17420;SDS011;8828;48.800;9.540;2023-07-02T06:19:52;5.17;;;2.77;;
17420;SDS011;8828;48.800;9.540;2023-07-02T06:22:20;5.23;;;2.53;;
17420;SDS011;8828;48.800;9.540;2023-07-02T06:24:48;7.27;;;2.40;;
17420;SDS011;8828;48.800;9.540;2023-07-02T06:27:16;6.03;;;2.60;;
17420;SDS011;8828;48.800;9.540;2023-07-02T06:29:46;4.53;;;2.57;;
17420;SDS011;8828;48.800;9.540;2023-07-02T06:32:14;8.20;;;2.97;;
17420;SDS011;8828;48.800;9.540;2023-07-02T06:34:42;4.47;;;2.47;;
17420;SDS011;8828;48.800;9.540;2023-07-02T06:37:09;8.30;;;2.60;;
17420;SDS011;8828;48.800;9.540;2023-07-02T06:39:37;6.00;;;2.97;;
17420;SDS011;8828;48.800;9.540;2023-07-02T06:42:05;6.23;;;3.10;;
17420;SDS011;8828;48.800;9.540;2023-07-02T06:44:33;7.90;;;3.40;;
17420;SDS011;8828;48.800;9.540;2023-07-02T06:47:03;8.10;;;3.70;;
17420;SDS011;8828;48.800;9.540;2023-07-02T06:49:31;10.80;;;3.50;;
17420;SDS011;8828;48.800;9.540;2023-07-02T06:51:59;7.13;;;3.33;;
17420;SDS011;8828;48.800;9.540;2023-07-02T06:54:27;7.87;;;3.97;;
17420;SDS011;8828;48.800;9.540;2023-07-02T06:56:55;5.63;;;3.40;;
17420;SDS011;8828;48.800;9.540;2023-07-02T06:59:23;7.73;;;3.80;;
17420;SDS011;8828;48.800;9.540;2023-07-02T07:01:51;8.43;;;4.93;;
17420;SDS011;8828;48.800;9.540;2023-07-02T07:04:21;10.43;;;4.77;;
17420;SDS011;8828;48.800;9.540;2023-07-02T07:06:49;8.13;;;3.73;;
17420;SDS011;8828;48.800;9.540;2023-07-02T07:09:17;8.13;;;3.80;;
17420;SDS011;8828;48.800;9.540;2023-07-02T07:11:45;9.00;;;3.87;;
17420;SDS011;8828;48.800;9.540;2023-07-02T07:14:13;11.23;;;4.97;;
17420;SDS011;8828;48.800;9.540;2023-07-02T07:16:41;11.83;;;5.20;;
17420;SDS011;8828;48.800;9.540;2023-07-02T07:19:09;11.43;;;5.20;;
17420;SDS011;8828;48.800;9.540;2023-07-02T07:21:38;8.40;;;5.03;;
17420;SDS011;8828;48.800;9.540;2023-07-02T07:24:06;9.73;;;4.80;;
17420;SDS011;8828;48.800;9.540;2023-07-02T07:26:34;12.47;;;4.77;;
17420;SDS011;8828;48.800;9.540;2023-07-02T07:29:03;14.97;;;5.10;;
17420;SDS011;8828;48.800;9.540;2023-07-02T07:31:31;11.87;;;5.07;;
17420;SDS011;8828;48.800;9.540;2023-07-02T07:33:59;9.53;;;4.90;;
17420;SDS011;8828;48.800;9.540;2023-07-02T07:36:27;13.37;;;5.17;;
17420;SDS011;8828;48.800;9.540;2023-07-02T07:38:56;12.17;;;5.33;;
17420;SDS011;8828;48.800;9.540;2023-07-02T07:41:26;15.37;;;5.17;;
17420;SDS011;8828;48.800;9.540;2023-07-02T07:43:54;42.30;;;18.23;;
17420;SDS011;8828;48.800;9.540;2023-07-02T07:46:22;16.73;;;6.40;;
17420;SDS011;8828;48.800;9.540;2023-07-02T07:48:50;12.40;;;5.27;;
17420;SDS011;8828;48.800;9.540;2023-07-02T07:51:18;12.43;;;5.67;;
17420;SDS011;8828;48.800;9.540;2023-07-02T07:53:46;10.77;;;5.63;;
17420;SDS011;8828;48.800;9.540;2023-07-02T07:56:16;10.73;;;5.37;;
17420;SDS011;8828;48.800;9.540;2023-07-02T07:58:44;10.93;;;5.30;;
17420;SDS011;8828;48.800;9.540;2023-07-02T08:01:12;12.87;;;5.70;;
17420;SDS011;8828;48.800;9.540;2023-07-02T08:03:40;13.23;;;5.50;;
17420;SDS011;8828;48.800;9.540;2023-07-02T08:06:08;11.03;;;5.70;;
17420;SDS011;8828;48.800;9.540;2023-07-02T08:08:35;13.30;;;5.57;;
17420;SDS011;8828;48.800;9.540;2023-07-02T08:11:03;9.37;;;5.10;;
17420;SDS011;8828;48.800;9.540;2023-07-02T08:13:33;13.57;;;6.00;;
17420;SDS011;8828;48.800;9.540;2023-07-02T08:16:01;14.53;;;5.77;;
17420;SDS011;8828;48.800;9.540;2023-07-02T08:18:29;13.23;;;5.70;;
17420;SDS011;8828;48.800;9.540;2023-07-02T08:20:57;12.50;;;5.70;;
17420;SDS011;8828;48.800;9.540;2023-07-02T08:23:25;18.23;;;9.37;;
17420;SDS011;8828;48.800;9.540;2023-07-02T08:25:53;14.80;;;7.10;;
17420;SDS011;8828;48.800;9.540;2023-07-02T08:28:21;17.90;;;6.70;;
17420;SDS011;8828;48.800;9.540;2023-07-02T08:30:50;12.87;;;6.07;;
17420;SDS011;8828;48.800;9.540;2023-07-02T08:33:18;12.53;;;6.63;;
17420;SDS011;8828;48.800;9.540;2023-07-02T08:35:46;15.03;;;6.53;;
17420;SDS011;8828;48.800;9.540;2023-07-02T08:38:14;18.03;;;7.30;;
17420;SDS011;8828;48.800;9.540;2023-07-02T08:40:42;15.37;;;6.50;;
17420;SDS011;8828;48.800;9.540;2023-07-02T08:43:10;16.80;;;7.87;;
17420;SDS011;8828;48.800;9.540;2023-07-02T08:45:40;14.63;;;7.47;;
17420;SDS011;8828;48.800;9.540;2023-07-02T08:48:10;15.93;;;7.13;;
17420;SDS011;8828;48.800;9.540;2023-07-02T08:50:38;18.13;;;7.80;;
17420;SDS011;8828;48.800;9.540;2023-07-02T08:53:06;13.87;;;7.00;;
17420;SDS011;8828;48.800;9.540;2023-07-02T08:55:34;14.57;;;7.37;;
17420;SDS011;8828;48.800;9.540;2023-07-02T08:58:03;20.30;;;8.97;;
17420;SDS011;8828;48.800;9.540;2023-07-02T09:00:31;15.53;;;6.73;;
17420;SDS011;8828;48.800;9.540;2023-07-02T09:03:14;18.60;;;8.20;;
17420;SDS011;8828;48.800;9.540;2023-07-02T09:05:49;16.87;;;7.73;;
17420;SDS011;8828;48.800;9.540;2023-07-02T09:08:24;19.53;;;7.67;;
17420;SDS011;8828;48.800;9.540;2023-07-02T09:10:53;15.37;;;7.50;;
17420;SDS011;8828;48.800;9.540;2023-07-02T09:13:22;18.50;;;7.97;;
17420;SDS011;8828;48.800;9.540;2023-07-02T09:15:50;17.57;;;7.53;;
17420;SDS011;8828;48.800;9.540;2023-07-02T09:18:19;18.57;;;7.93;;
17420;SDS011;8828;48.800;9.540;2023-07-02T09:20:50;16.33;;;7.27;;
17420;SDS011;8828;48.800;9.540;2023-07-02T09:23:19;14.47;;;6.97;;
17420;SDS011;8828;48.800;9.540;2023-07-02T09:25:48;14.97;;;7.33;;
17420;SDS011;8828;48.800;9.540;2023-07-02T09:28:17;13.37;;;6.83;;
17420;SDS011;8828;48.800;9.540;2023-07-02T09:30:50;17.07;;;7.60;;
17420;SDS011;8828;48.800;9.540;2023-07-02T09:33:24;14.50;;;7.37;;
17420;SDS011;8828;48.800;9.540;2023-07-02T09:35:52;19.17;;;6.73;;
17420;SDS011;8828;48.800;9.540;2023-07-02T09:38:21;13.63;;;6.80;;
17420;SDS011;8828;48.800;9.540;2023-07-02T09:40:51;16.13;;;8.37;;
17420;SDS011;8828;48.800;9.540;2023-07-02T09:43:19;14.07;;;6.37;;
17420;SDS011;8828;48.800;9.540;2023-07-02T09:45:49;13.17;;;6.57;;
17420;SDS011;8828;48.800;9.540;2023-07-02T09:48:18;12.30;;;6.00;;
17420;SDS011;8828;48.800;9.540;2023-07-02T09:50:50;13.50;;;6.97;;
17420;SDS011;8828;48.800;9.540;2023-07-02T09:53:19;14.27;;;5.90;;
17420;SDS011;8828;48.800;9.540;2023-07-02T09:55:49;12.83;;;6.87;;
17420;SDS011;8828;48.800;9.540;2023-07-02T09:58:19;13.80;;;6.67;;
17420;SDS011;8828;48.800;9.540;2023-07-02T10:00:47;14.77;;;5.70;;
17420;SDS011;8828;48.800;9.540;2023-07-02T10:03:27;14.80;;;6.87;;
17420;SDS011;8828;48.800;9.540;2023-07-02T10:06:06;15.03;;;6.87;;
17420;SDS011;8828;48.800;9.540;2023-07-02T10:08:35;13.83;;;6.57;;
17420;SDS011;8828;48.800;9.540;2023-07-02T10:11:06;15.40;;;7.10;;
17420;SDS011;8828;48.800;9.540;2023-07-02T10:13:35;14.17;;;6.50;;
17420;SDS011;8828;48.800;9.540;2023-07-02T10:16:03;14.13;;;6.73;;
17420;SDS011;8828;48.800;9.540;2023-07-02T10:18:32;16.93;;;6.57;;
17420;SDS011;8828;48.800;9.540;2023-07-02T10:21:13;14.27;;;6.53;;
17420;SDS011;8828;48.800;9.540;2023-07-02T10:23:42;12.40;;;6.37;;
17420;SDS011;8828;48.800;9.540;2023-07-02T10:26:10;12.83;;;6.50;;
17420;SDS011;8828;48.800;9.540;2023-07-02T10:28:41;16.97;;;7.20;;
17420;SDS011;8828;48.800;9.540;2023-07-02T10:31:21;13.20;;;7.13;;
17420;SDS011;8828;48.800;9.540;2023-07-02T10:33:50;13.27;;;6.50;;
17420;SDS011;8828;48.800;9.540;2023-07-02T10:36:19;16.13;;;6.40;;
17420;SDS011;8828;48.800;9.540;2023-07-02T10:38:49;13.40;;;6.90;;
17420;SDS011;8828;48.800;9.540;2023-07-02T10:41:24;18.43;;;8.33;;
17420;SDS011;8828;48.800;9.540;2023-07-02T10:44:04;14.27;;;6.87;;
17420;SDS011;8828;48.800;9.540;2023-07-02T10:46:33;13.20;;;6.40;;
17420;SDS011;8828;48.800;9.540;2023-07-02T10:49:01;15.87;;;6.60;;
17420;SDS011;8828;48.800;9.540;2023-07-02T10:51:33;16.40;;;6.80;;
17420;SDS011;8828;48.800;9.540;2023-07-02T10:54:01;14.47;;;6.83;;
17420;SDS011;8828;48.800;9.540;2023-07-02T10:56:31;12.37;;;6.50;;
17420;SDS011;8828;48.800;9.540;2023-07-02T10:58:59;13.73;;;6.53;;
17420;SDS011;8828;48.800;9.540;2023-07-02T11:01:30;14.20;;;6.80;;
17420;SDS011;8828;48.800;9.540;2023-07-02T11:03:59;15.20;;;7.07;;
17420;SDS011;8828;48.800;9.540;2023-07-02T11:06:34;13.43;;;6.93;;
17420;SDS011;8828;48.800;9.540;2023-07-02T11:09:02;11.07;;;6.67;;
17420;SDS011;8828;48.800;9.540;2023-07-02T11:11:30;18.07;;;7.20;;
17420;SDS011;8828;48.800;9.540;2023-07-02T11:13:58;15.40;;;7.43;;
17420;SDS011;8828;48.800;9.540;2023-07-02T11:16:26;13.83;;;6.93;;
17420;SDS011;8828;48.800;9.540;2023-07-02T11:19:05;14.40;;;6.50;;
17420;SDS011;8828;48.800;9.540;2023-07-02T11:21:36;12.83;;;6.93;;
17420;SDS011;8828;48.800;9.540;2023-07-02T11:24:05;16.00;;;7.63;;
17420;SDS011;8828;48.800;9.540;2023-07-02T11:26:34;15.93;;;7.67;;
17420;SDS011;8828;48.800;9.540;2023-07-02T11:29:03;15.97;;;7.30;;
17420;SDS011;8828;48.800;9.540;2023-07-02T11:31:36;16.50;;;7.00;;
17420;SDS011;8828;48.800;9.540;2023-07-02T11:34:10;15.63;;;6.90;;
17420;SDS011;8828;48.800;9.540;2023-07-02T11:36:45;17.23;;;7.30;;
17420;SDS011;8828;48.800;9.540;2023-07-02T11:39:13;12.40;;;7.17;;
17420;SDS011;8828;48.800;9.540;2023-07-02T11:41:43;13.83;;;7.23;;
17420;SDS011;8828;48.800;9.540;2023-07-02T11:44:11;18.17;;;7.17;;
17420;SDS011;8828;48.800;9.540;2023-07-02T11:46:39;13.10;;;6.70;;
17420;SDS011;8828;48.800;9.540;2023-07-02T11:49:07;16.27;;;8.13;;
17420;SDS011;8828;48.800;9.540;2023-07-02T11:51:36;15.83;;;6.63;;
17420;SDS011;8828;48.800;9.540;2023-07-02T11:54:06;15.37;;;7.73;;
17420;SDS011;8828;48.800;9.540;2023-07-02T11:56:34;19.83;;;8.43;;
17420;SDS011;8828;48.800;9.540;2023-07-02T11:59:02;14.40;;;7.50;;
17420;SDS011;8828;48.800;9.540;2023-07-02T12:01:30;15.57;;;7.47;;
17420;SDS011;8828;48.800;9.540;2023-07-02T12:03:59;13.50;;;7.07;;
17420;SDS011;8828;48.800;9.540;2023-07-02T12:06:28;15.23;;;7.33;;
17420;SDS011;8828;48.800;9.540;2023-07-02T12:08:57;14.20;;;7.37;;
17420;SDS011;8828;48.800;9.540;2023-07-02T12:11:26;13.87;;;7.00;;
17420;SDS011;8828;48.800;9.540;2023-07-02T12:13:54;14.17;;;7.03;;
17420;SDS011;8828;48.800;9.540;2023-07-02T12:16:23;13.53;;;6.70;;
17420;SDS011;8828;48.800;9.540;2023-07-02T12:18:51;15.07;;;6.80;;
17420;SDS011;8828;48.800;9.540;2023-07-02T12:21:21;14.57;;;7.20;;
17420;SDS011;8828;48.800;9.540;2023-07-02T12:23:49;15.13;;;7.03;;
17420;SDS011;8828;48.800;9.540;2023-07-02T12:26:17;15.93;;;6.47;;
17420;SDS011;8828;48.800;9.540;2023-07-02T12:28:46;14.57;;;7.40;;
17420;SDS011;8828;48.800;9.540;2023-07-02T12:31:14;15.77;;;7.23;;
17420;SDS011;8828;48.800;9.540;2023-07-02T12:33:42;15.43;;;7.10;;
17420;SDS011;8828;48.800;9.540;2023-07-02T12:36:10;12.00;;;6.63;;
17420;SDS011;8828;48.800;9.540;2023-07-02T12:38:38;14.47;;;6.93;;
17420;SDS011;8828;48.800;9.540;2023-07-02T12:41:06;14.47;;;6.93;;
17420;SDS011;8828;48.800;9.540;2023-07-02T12:43:34;14.47;;;7.20;;
17420;SDS011;8828;48.800;9.540;2023-07-02T12:46:03;16.33;;;7.67;;
17420;SDS011;8828;48.800;9.540;2023-07-02T12:48:31;12.47;;;7.13;;
17420;SDS011;8828;48.800;9.540;2023-07-02T12:50:59;14.07;;;7.13;;
17420;SDS011;8828;48.800;9.540;2023-07-02T12:53:28;19.43;;;7.87;;
17420;SDS011;8828;48.800;9.540;2023-07-02T12:55:56;20.10;;;7.80;;
17420;SDS011;8828;48.800;9.540;2023-07-02T12:58:24;15.63;;;7.80;;
17420;SDS011;8828;48.800;9.540;2023-07-02T13:00:52;17.07;;;7.50;;
17420;SDS011;8828;48.800;9.540;2023-07-02T13:03:22;16.50;;;7.77;;
17420;SDS011;8828;48.800;9.540;2023-07-02T13:05:51;11.90;;;6.97;;
17420;SDS011;8828;48.800;9.540;2023-07-02T13:08:19;16.43;;;7.63;;
17420;SDS011;8828;48.800;9.540;2023-07-02T13:10:47;14.63;;;7.90;;
17420;SDS011;8828;48.800;9.540;2023-07-02T13:13:15;15.87;;;7.63;;
17420;SDS011;8828;48.800;9.540;2023-07-02T13:15:49;16.67;;;8.23;;
17420;SDS011;8828;48.800;9.540;2023-07-02T13:18:17;17.80;;;7.80;;
17420;SDS011;8828;48.800;9.540;2023-07-02T13:20:47;17.00;;;9.63;;
17420;SDS011;8828;48.800;9.540;2023-07-02T13:23:15;14.87;;;8.07;;
17420;SDS011;8828;48.800;9.540;2023-07-02T13:25:43;16.17;;;7.77;;
17420;SDS011;8828;48.800;9.540;2023-07-02T13:28:11;15.83;;;7.53;;
17420;SDS011;8828;48.800;9.540;2023-07-02T13:30:39;15.30;;;7.73;;
17420;SDS011;8828;48.800;9.540;2023-07-02T13:33:07;13.50;;;6.87;;
17420;SDS011;8828;48.800;9.540;2023-07-02T13:35:35;16.83;;;7.33;;
17420;SDS011;8828;48.800;9.540;2023-07-02T13:38:05;16.50;;;7.77;;
17420;SDS011;8828;48.800;9.540;2023-07-02T13:40:33;16.80;;;8.17;;
17420;SDS011;8828;48.800;9.540;2023-07-02T13:43:01;18.70;;;8.73;;
17420;SDS011;8828;48.800;9.540;2023-07-02T13:45:29;14.23;;;7.73;;
17420;SDS011;8828;48.800;9.540;2023-07-02T13:47:58;16.83;;;8.33;;
17420;SDS011;8828;48.800;9.540;2023-07-02T13:50:26;16.10;;;7.80;;
17420;SDS011;8828;48.800;9.540;2023-07-02T13:52:54;14.63;;;8.13;;
17420;SDS011;8828;48.800;9.540;2023-07-02T13:55:23;14.47;;;7.53;;
17420;SDS011;8828;48.800;9.540;2023-07-02T13:57:54;14.13;;;7.30;;
17420;SDS011;8828;48.800;9.540;2023-07-02T14:00:24;13.53;;;7.57;;
17420;SDS011;8828;48.800;9.540;2023-07-02T14:02:52;18.90;;;8.30;;
17420;SDS011;8828;48.800;9.540;2023-07-02T14:05:21;16.20;;;8.03;;
17420;SDS011;8828;48.800;9.540;2023-07-02T14:07:49;22.27;;;7.53;;
17420;SDS011;8828;48.800;9.540;2023-07-02T14:10:17;15.73;;;7.33;;
17420;SDS011;8828;48.800;9.540;2023-07-02T14:12:45;16.00;;;7.93;;
17420;SDS011;8828;48.800;9.540;2023-07-02T14:15:13;18.90;;;7.97;;
17420;SDS011;8828;48.800;9.540;2023-07-02T14:17:42;16.80;;;7.77;;
17420;SDS011;8828;48.800;9.540;2023-07-02T14:20:11;13.37;;;6.93;;
17420;SDS011;8828;48.800;9.540;2023-07-02T14:22:39;15.80;;;7.97;;
17420;SDS011;8828;48.800;9.540;2023-07-02T14:25:08;15.30;;;7.53;;
17420;SDS011;8828;48.800;9.540;2023-07-02T14:27:36;17.90;;;8.47;;
17420;SDS011;8828;48.800;9.540;2023-07-02T14:30:04;15.37;;;7.43;;
17420;SDS011;8828;48.800;9.540;2023-07-02T14:32:34;16.77;;;7.37;;
17420;SDS011;8828;48.800;9.540;2023-07-02T14:35:04;21.10;;;10.30;;
17420;SDS011;8828;48.800;9.540;2023-07-02T14:37:32;16.03;;;7.50;;
17420;SDS011;8828;48.800;9.540;2023-07-02T14:40:00;16.67;;;7.73;;
17420;SDS011;8828;48.800;9.540;2023-07-02T14:42:32;14.33;;;7.97;;
17420;SDS011;8828;48.800;9.540;2023-07-02T14:45:00;13.50;;;7.40;;
17420;SDS011;8828;48.800;9.540;2023-07-02T14:47:28;16.30;;;7.57;;
17420;SDS011;8828;48.800;9.540;2023-07-02T14:49:56;15.60;;;8.03;;
17420;SDS011;8828;48.800;9.540;2023-07-02T14:52:26;16.40;;;7.40;;
17420;SDS011;8828;48.800;9.540;2023-07-02T14:54:54;15.37;;;8.20;;
17420;SDS011;8828;48.800;9.540;2023-07-02T14:57:22;15.47;;;8.53;;
17420;SDS011;8828;48.800;9.540;2023-07-02T14:59:50;15.17;;;8.37;;
17420;SDS011;8828;48.800;9.540;2023-07-02T15:02:18;18.07;;;8.90;;
17420;SDS011;8828;48.800;9.540;2023-07-02T15:04:47;16.17;;;7.93;;